Time;durP1;ratioP1;P1;durP2;ratioP2;P2;SDS_P1;SDS_P2;PMS_P1;PMS_P2;Temp;Humidity;BMP_temperature;BMP_pressure;BME280_temperature;BME280_humidity;BME280_pressure;Samples;Min_cycle;Max_cycle;Signal;HPM_P1;HPM_P2
2023/07/29 00:01:27;;;;;;;;;;;;;;;;;;5115286;28;19924;-90
2023/07/29 00:03:53;;;;;;;;;;;;;;;;;;5096409;28;19923;-90
2023/07/29 00:06:19;;;;;;;;;;;;;;;;;;5096685;28;20371;-91
2023/07/29 00:08:45;;;;;;;;;;;;;;;;;;5113480;28;19924;-90
2023/07/29 00:11:11;;;;;;;;;;;;;;;;;;5096463;28;19973;-89
2023/07/29 00:13:37;;;;;;;;;;;;;;;;;;5096220;28;19924;-90
2023/07/29 00:16:03;;;;;;;;;;;;;;;;;;5113541;28;19942;-89
2023/07/29 00:18:29;;;;;;;;;;;;;;;;;;5096249;28;19919;-89
2023/07/29 00:20:55;;;;;;;;;;;;;;;;;;5113291;28;20401;-89
2023/07/29 00:23:21;;;;;;;;;;;;;;;;;;5113166;28;19924;-91
2023/07/29 00:25:47;;;;;;;;;;;;;;;;;;5113255;28;19924;-90
2023/07/29 00:28:13;;;;;;;;;;;;;;;;;;5113246;28;19923;-91
2023/07/29 00:30:39;;;;;;;;;;;;;;;;;;5113414;28;20298;-90
2023/07/29 00:33:05;;;;;;;;;;;;;;;;;;5096116;28;20402;-90
2023/07/29 00:35:31;;;;;;;;;;;;;;;;;;5095911;28;20029;-90
2023/07/29 00:37:57;;;;;;;;;;;;;;;;;;5095865;28;20414;-90
2023/07/29 00:40:23;;;;;;;;;;;;;;;;;;5095838;28;19998;-91
2023/07/29 00:42:49;;;;;;;;;;;;;;;;;;5112840;28;19928;-91
2023/07/29 00:45:15;;;;;;;;;;;;;;;;;;5095962;28;19928;-90
2023/07/29 00:47:41;;;;;;;;;;;;;;;;;;5113039;28;19920;-90
2023/07/29 00:50:06;;;;;;;;;;;;;;;;;;5095690;28;20006;-90
2023/07/29 00:52:32;;;;;;;;;;;;;;;;;;5095636;28;20328;-90
2023/07/29 00:54:58;;;;;;;;;;;;;;;;;;5112632;28;19920;-92
2023/07/29 00:57:25;;;;;;;;;;;;;;;;;;5095587;28;20282;-91
2023/07/29 00:59:51;;;;;;;;;;;;;;;;;;5112577;28;19920;-91
2023/07/29 01:02:17;;;;;;;;;;;;;;;;;;5112691;28;19934;-90
2023/07/29 01:04:43;;;;;;;;;;;;;;;;;;5094398;28;19949;-90
2023/07/29 01:07:08;;;;;;;;;;;;;;;;;;5095461;28;20331;-91
2023/07/29 01:09:34;;;;;;;;;;;;;;;;;;5112341;28;19920;-91
2023/07/29 01:12:00;;;;;;;;;;;;;;;;;;5112434;28;19919;-91
2023/07/29 01:14:26;;;;;;;;;;;;;;;;;;5112627;28;19919;-91
2023/07/29 01:16:52;;;;;;;;;;;;;;;;;;5095161;28;19919;-91
2023/07/29 01:19:18;;;;;;;;;;;;;;;;;;5095556;28;19968;-90
2023/07/29 01:21:44;;;;;;;;;;;;;;;;;;5095149;28;19924;-91
2023/07/29 01:24:10;;;;;;;;;;;;;;;;;;5113397;28;19940;-91
2023/07/29 01:26:36;;;;;;;;;;;;;;;;;;5111966;28;19920;-91
2023/07/29 01:29:02;;;;;;;;;;;;;;;;;;5095245;28;19920;-90
2023/07/29 01:31:28;;;;;;;;;;;;;;;;;;5111893;28;20363;-91
2023/07/29 01:33:54;;;;;;;;;;;;;;;;;;5112059;28;20044;-90
2023/07/29 01:36:19;;;;;;;;;;;;;;;;;;5094820;28;19920;-90
2023/07/29 01:38:45;;;;;;;;;;;;;;;;;;5094827;28;20062;-90
2023/07/29 01:41:11;;;;;;;;;;;;;;;;;;5113198;28;19919;-90
2023/07/29 01:43:42;;;;;;;;;;;;;;;;;;5094919;28;19928;-90
2023/07/29 01:46:08;;;;;;;;;;;;;;;;;;5113188;28;19927;-90
2023/07/29 01:48:35;;;;;;;;;;;;;;;;;;5111702;28;19919;-90
2023/07/29 01:51:01;;;;;;;;;;;;;;;;;;5094711;28;19939;-90
2023/07/29 01:53:26;;;;;;;;;;;;;;;;;;5094509;28;20006;-90
2023/07/29 01:55:52;;;;;;;;;;;;;;;;;;5112852;28;19966;-90
2023/07/29 01:58:18;;;;;;;;;;;;;;;;;;5111551;28;19964;-88
2023/07/29 02:00:44;;;;;;;;;;;;;;;;;;5111566;28;19920;-88
2023/07/29 02:03:10;;;;;;;;;;;;;;;;;;5111429;28;20027;-88
2023/07/29 02:05:36;;;;;;;;;;;;;;;;;;5094342;28;19926;-89
2023/07/29 02:08:02;;;;;;;;;;;;;;;;;;5111095;28;19956;-88
2023/07/29 02:10:28;;;;;;;;;;;;;;;;;;5111175;28;19919;-88
2023/07/29 02:12:54;;;;;;;;;;;;;;;;;;5111246;28;19966;-88
2023/07/29 02:15:20;;;;;;;;;;;;;;;;;;5112512;28;19946;-87
2023/07/29 02:17:45;;;;;;;;;;;;;;;;;;5094187;28;19924;-89
2023/07/29 02:20:11;;;;;;;;;;;;;;;;;;5094192;28;19923;-89
2023/07/29 02:22:37;;;;;;;;;;;;;;;;;;5110895;28;19935;-88
2023/07/29 02:25:03;;;;;;;;;;;;;;;;;;5111356;28;19920;-88
2023/07/29 02:27:29;;;;;;;;;;;;;;;;;;5111121;28;20022;-89
2023/07/29 02:29:55;;;;;;;;;;;;;;;;;;5111094;28;19919;-89
2023/07/29 02:32:21;;;;;;;;;;;;;;;;;;5094240;28;19920;-89
2023/07/29 02:34:47;;;;;;;;;;;;;;;;;;5111621;28;20333;-91
2023/07/29 02:37:13;;;;;;;;;;;;;;;;;;5094137;28;20420;-90
2023/07/29 02:39:39;;;;;;;;;;;;;;;;;;5094346;28;19973;-88
2023/07/29 02:42:05;;;;;;;;;;;;;;;;;;5094040;28;19924;-91
2023/07/29 02:44:31;;;;;;;;;;;;;;;;;;5111382;28;19920;-91
2023/07/29 02:46:57;;;;;;;;;;;;;;;;;;5112849;28;20389;-89
2023/07/29 02:49:23;;;;;;;;;;;;;;;;;;5111037;28;19926;-89
2023/07/29 02:51:49;;;;;;;;;;;;;;;;;;5112464;28;19920;-89
2023/07/29 02:54:15;;;;;;;;;;;;;;;;;;5111073;28;19926;-89
2023/07/29 02:56:41;;;;;;;;;;;;;;;;;;5093870;28;20019;-90
2023/07/29 02:59:07;;;;;;;;;;;;;;;;;;5094247;28;20046;-89
2023/07/29 03:01:33;;;;;;;;;;;;;;;;;;5111168;28;19939;-89
2023/07/29 03:03:58;;;;;;;;;;;;;;;;;;5093852;28;19924;-90
2023/07/29 03:06:24;;;;;;;;;;;;;;;;;;5093757;28;19924;-92
2023/07/29 03:08:50;;;;;;;;;;;;;;;;;;5094101;28;20345;-90
2023/07/29 03:11:16;;;;;;;;;;;;;;;;;;5110774;28;19920;-90
2023/07/29 03:13:42;;;;;;;;;;;;;;;;;;5094309;28;20193;-90
2023/07/29 03:16:08;;;;;;;;;;;;;;;;;;5112303;28;19920;-90
2023/07/29 03:18:34;;;;;;;;;;;;;;;;;;5094011;28;20294;-91
2023/07/29 03:21:00;;;;;;;;;;;;;;;;;;5093865;28;19926;-91
2023/07/29 03:23:26;;;;;;;;;;;;;;;;;;5110927;28;20359;-91
2023/07/29 03:25:56;;;;;;;;;;;;;;;;;;5111445;28;19927;-92
2023/07/29 03:28:25;;;;;;;;;;;;;;;;;;5095906;28;20395;-94
2023/07/29 03:30:51;;;;;;;;;;;;;;;;;;5115189;28;19970;-93
2023/07/29 03:33:20;;;;;;;;;;;;;;;;;;5114866;28;19924;-94
2023/07/29 03:35:46;;;;;;;;;;;;;;;;;;5115017;28;20010;-93
2023/07/29 03:38:12;;;;;;;;;;;;;;;;;;5115105;28;19951;-93
2023/07/29 03:40:38;;;;;;;;;;;;;;;;;;5115010;28;19923;-92
2023/07/29 03:43:04;;;;;;;;;;;;;;;;;;5097756;28;19924;-91
2023/07/29 03:45:30;;;;;;;;;;;;;;;;;;5097613;28;19919;-90
2023/07/29 03:47:56;;;;;;;;;;;;;;;;;;5114764;28;19926;-93
2023/07/29 03:50:22;;;;;;;;;;;;;;;;;;5096782;28;19920;-93
2023/07/29 03:52:48;;;;;;;;;;;;;;;;;;5115021;28;19931;-93
2023/07/29 03:55:14;;;;;;;;;;;;;;;;;;5097403;28;19919;-92
2023/07/29 03:57:40;;;;;;;;;;;;;;;;;;5097339;28;19927;-94
2023/07/29 04:00:05;;;;;;;;;;;;;;;;;;5097603;28;19923;-93
2023/07/29 04:02:31;;;;;;;;;;;;;;;;;;5114463;28;19924;-92
2023/07/29 04:04:57;;;;;;;;;;;;;;;;;;5114341;28;19923;-93
2023/07/29 04:07:23;;;;;;;;;;;;;;;;;;5115881;28;19920;-92
2023/07/29 04:09:49;;;;;;;;;;;;;;;;;;5114110;28;19926;-90
2023/07/29 04:12:15;;;;;;;;;;;;;;;;;;5115086;28;19926;-90
2023/07/29 04:14:41;;;;;;;;;;;;;;;;;;5096736;28;20010;-90
2023/07/29 04:17:07;;;;;;;;;;;;;;;;;;5096549;28;20351;-92
2023/07/29 04:19:33;;;;;;;;;;;;;;;;;;5097018;28;19962;-93
2023/07/29 04:21:59;;;;;;;;;;;;;;;;;;5097343;28;19920;-94
2023/07/29 04:24:25;;;;;;;;;;;;;;;;;;5115656;28;19919;-93
2023/07/29 04:26:51;;;;;;;;;;;;;;;;;;5097144;28;19965;-92
2023/07/29 04:29:17;;;;;;;;;;;;;;;;;;5115114;28;20011;-92
2023/07/29 04:31:43;;;;;;;;;;;;;;;;;;5113855;28;19994;-93
2023/07/29 04:34:09;;;;;;;;;;;;;;;;;;5113763;28;19924;-92
2023/07/29 04:36:35;;;;;;;;;;;;;;;;;;5115084;28;19920;-93
2023/07/29 04:39:01;;;;;;;;;;;;;;;;;;5096875;28;19977;-94
2023/07/29 04:41:26;;;;;;;;;;;;;;;;;;5097329;28;20375;-93
2023/07/29 04:43:52;;;;;;;;;;;;;;;;;;5113698;28;19975;-93
2023/07/29 04:46:18;;;;;;;;;;;;;;;;;;5096290;28;20206;-93
2023/07/29 04:48:44;;;;;;;;;;;;;;;;;;5113823;28;20416;-92
2023/07/29 04:51:10;;;;;;;;;;;;;;;;;;5114845;28;20323;-93
2023/07/29 04:53:37;;;;;;;;;;;;;;;;;;5096662;28;19920;-93
2023/07/29 04:56:03;;;;;;;;;;;;;;;;;;5096200;28;19923;-94
2023/07/29 04:58:29;;;;;;;;;;;;;;;;;;5113440;28;19920;-93
2023/07/29 05:00:55;;;;;;;;;;;;;;;;;;5365171;22;19927;-93
2023/07/29 05:03:21;;;;;;;;;;;;;;;;;;5035863;28;19932;-92
2023/07/29 05:05:47;;;;;;;;;;;;;;;;;;5036068;28;20217;-92
2023/07/29 05:08:13;;;;;;;;;;;;;;;;;;5052913;28;20384;-92
2023/07/29 05:10:39;;;;;;;;;;;;;;;;;;5052951;28;19927;-92
2023/07/29 05:13:05;;;;;;;;;;;;;;;;;;5035488;28;19920;-92
2023/07/29 05:15:31;;;;;;;;;;;;;;;;;;5035613;28;19951;-92
2023/07/29 05:17:57;;;;;;;;;;;;;;;;;;5035747;28;19921;-93
2023/07/29 05:20:23;;;;;;;;;;;;;;;;;;5053773;28;20023;-92
2023/07/29 05:22:48;;;;;;;;;;;;;;;;;;5051622;28;19964;-91
2023/07/29 05:25:14;;;;;;;;;;;;;;;;;;5035612;28;19921;-92
2023/07/29 05:27:40;;;;;;;;;;;;;;;;;;5035171;28;19920;-91
2023/07/29 05:30:06;;;;;;;;;;;;;;;;;;5034854;28;19921;-91
2023/07/29 05:32:32;;;;;;;;;;;;;;;;;;5053236;28;20297;-91
2023/07/29 05:34:58;;;;;;;;;;;;;;;;;;5053112;28;19936;-91
2023/07/29 05:37:24;;;;;;;;;;;;;;;;;;5052861;28;19990;-91
2023/07/29 05:39:50;;;;;;;;;;;;;;;;;;5034737;28;20016;-92
2023/07/29 05:42:16;;;;;;;;;;;;;;;;;;5051684;28;19976;-91
2023/07/29 05:44:42;;;;;;;;;;;;;;;;;;5034761;28;19978;-91
2023/07/29 05:47:08;;;;;;;;;;;;;;;;;;5034925;28;19921;-91
2023/07/29 05:49:34;;;;;;;;;;;;;;;;;;5034544;28;20277;-91
2023/07/29 05:52:00;;;;;;;;;;;;;;;;;;5035013;28;19920;-92
2023/07/29 05:54:26;;;;;;;;;;;;;;;;;;5034388;28;19992;-91
2023/07/29 05:56:52;;;;;;;;;;;;;;;;;;5034780;28;20403;-91
2023/07/29 05:59:17;;;;;;;;;;;;;;;;;;5052575;28;20280;-91
2023/07/29 06:01:43;;;;;;;;;;;;;;;;;;5034547;28;20011;-92
2023/07/29 06:04:09;;;;;;;;;;;;;;;;;;5052534;28;20313;-92
2023/07/29 06:06:35;;;;;;;;;;;;;;;;;;5034815;28;20065;-92
2023/07/29 06:09:01;;;;;;;;;;;;;;;;;;5034923;28;20019;-93
2023/07/29 06:11:27;;;;;;;;;;;;;;;;;;5034857;28;19943;-92
2023/07/29 06:13:53;;;;;;;;;;;;;;;;;;5035103;28;19928;-94
2023/07/29 06:16:19;;;;;;;;;;;;;;;;;;5052982;28;19921;-93
2023/07/29 06:18:45;;;;;;;;;;;;;;;;;;5034796;28;19921;-93
2023/07/29 06:21:16;;;;;;;;;;;;;;;;;;5034660;28;20427;-93
2023/07/29 06:23:42;;;;;;;;;;;;;;;;;;5034924;28;19972;-92
2023/07/29 06:26:08;;;;;;;;;;;;;;;;;;5034565;28;19928;-92
2023/07/29 06:28:34;;;;;;;;;;;;;;;;;;5034637;28;19925;-92
2023/07/29 06:31:00;;;;;;;;;;;;;;;;;;5051782;28;19964;-92
2023/07/29 06:33:29;;;;;;;;;;;;;;;;;;5034634;28;19921;-92
2023/07/29 06:35:55;;;;;;;;;;;;;;;;;;5051472;28;19921;-92
2023/07/29 06:38:21;;;;;;;;;;;;;;;;;;5034298;28;19921;-92
2023/07/29 06:40:47;;;;;;;;;;;;;;;;;;5051313;28;19920;-92
2023/07/29 06:43:13;;;;;;;;;;;;;;;;;;5034437;28;19959;-93
2023/07/29 06:45:39;;;;;;;;;;;;;;;;;;5052575;28;19921;-91
2023/07/29 06:48:05;;;;;;;;;;;;;;;;;;5034524;28;19932;-92
2023/07/29 06:50:31;;;;;;;;;;;;;;;;;;5034624;28;19929;-92
2023/07/29 06:52:57;;;;;;;;;;;;;;;;;;5034233;28;20218;-93
2023/07/29 06:55:23;;;;;;;;;;;;;;;;;;5051005;28;20015;-92
2023/07/29 06:57:49;;;;;;;;;;;;;;;;;;5033907;28;19921;-92
2023/07/29 07:00:15;;;;;;;;;;;;;;;;;;5034404;28;19920;-92
2023/07/29 07:02:41;;;;;;;;;;;;;;;;;;5035281;28;19931;-91
2023/07/29 07:05:07;;;;;;;;;;;;;;;;;;5055964;28;19927;-91
2023/07/29 07:07:33;;;;;;;;;;;;;;;;;;5037806;28;20228;-91
2023/07/29 07:09:59;;;;;;;;;;;;;;;;;;5054442;28;20273;-91
2023/07/29 07:12:25;;;;;;;;;;;;;;;;;;5054189;28;19921;-92
2023/07/29 07:14:51;;;;;;;;;;;;;;;;;;5055624;28;19925;-91
2023/07/29 07:17:17;;;;;;;;;;;;;;;;;;5055622;28;19920;-91
2023/07/29 07:19:43;;;;;;;;;;;;;;;;;;5037400;28;19971;-91
2023/07/29 07:22:09;;;;;;;;;;;;;;;;;;5037001;28;19921;-90
2023/07/29 07:24:35;;;;;;;;;;;;;;;;;;5037698;28;19975;-93
2023/07/29 07:27:01;;;;;;;;;;;;;;;;;;5036890;28;20008;-88
2023/07/29 07:29:27;;;;;;;;;;;;;;;;;;5037279;28;19974;-89
2023/07/29 07:31:53;;;;;;;;;;;;;;;;;;5036915;28;19940;-90
2023/07/29 07:34:19;;;;;;;;;;;;;;;;;;5037097;28;19925;-90
2023/07/29 07:36:45;;;;;;;;;;;;;;;;;;5053400;28;19920;-90
2023/07/29 07:39:11;;;;;;;;;;;;;;;;;;5036579;28;19921;-89
2023/07/29 07:41:36;;;;;;;;;;;;;;;;;;5036950;28;19943;-90
2023/07/29 07:44:02;;;;;;;;;;;;;;;;;;5054679;28;19979;-91
2023/07/29 07:46:28;;;;;;;;;;;;;;;;;;5036625;28;19921;-92
2023/07/29 07:48:54;;;;;;;;;;;;;;;;;;5063559;28;19956;-90
2023/07/29 07:51:20;;;;;;;;;;;;;;;;;;5056789;28;20217;-89
2023/07/29 07:53:46;;;;;;;;;;;;;;;;;;5056164;28;19974;-90
2023/07/29 07:56:12;;;;;;;;;;;;;;;;;;5065733;28;19927;-91
2023/07/29 07:58:38;;;;;;;;;;;;;;;;;;5054664;28;19955;-90
2023/07/29 08:01:04;;;;;;;;;;;;;;;;;;5019845;28;19920;-90
2023/07/29 08:03:30;;;;;;;;;;;;;;;;;;5036206;28;19984;-90
2023/07/29 08:05:56;;;;;;;;;;;;;;;;;;5065093;28;19920;-90
2023/07/29 08:08:21;;;;;;;;;;;;;;;;;;5056115;28;20005;-90
2023/07/29 08:10:47;;;;;;;;;;;;;;;;;;5037301;28;20058;-90
2023/07/29 08:13:13;;;;;;;;;;;;;;;;;;5020064;28;20269;-91
2023/07/29 08:15:40;;;;;;;;;;;;;;;;;;5054009;28;19921;-91
2023/07/29 08:18:06;;;;;;;;;;;;;;;;;;5019671;28;19947;-91
2023/07/29 08:20:32;;;;;;;;;;;;;;;;;;5019584;28;19929;-91
2023/07/29 08:22:58;;;;;;;;;;;;;;;;;;5019136;28;19925;-88
2023/07/29 08:25:24;;;;;;;;;;;;;;;;;;5036362;28;20280;-88
2023/07/29 08:27:50;;;;;;;;;;;;;;;;;;5019555;28;19924;-89
2023/07/29 08:30:17;;;;;;;;;;;;;;;;;;5035917;28;19932;-87
2023/07/29 08:32:44;;;;;;;;;;;;;;;;;;5019444;28;19921;-89
2023/07/29 08:35:10;;;;;;;;;;;;;;;;;;5035893;28;19927;-88
2023/07/29 08:37:36;;;;;;;;;;;;;;;;;;5018967;28;20364;-88
2023/07/29 08:40:02;;;;;;;;;;;;;;;;;;5053646;28;19925;-88
2023/07/29 08:42:29;;;;;;;;;;;;;;;;;;5061461;28;19958;-88
2023/07/29 08:44:55;;;;;;;;;;;;;;;;;;5038128;28;19928;-89
2023/07/29 08:47:21;;;;;;;;;;;;;;;;;;5042937;28;19924;-88
2023/07/29 08:49:47;;;;;;;;;;;;;;;;;;5055608;28;19921;-90
2023/07/29 08:52:13;;;;;;;;;;;;;;;;;;5055551;28;19924;-90
2023/07/29 08:54:38;;;;;;;;;;;;;;;;;;5035994;28;19920;-91
2023/07/29 08:57:04;;;;;;;;;;;;;;;;;;5035496;28;19921;-89
2023/07/29 08:59:30;;;;;;;;;;;;;;;;;;5053450;28;20415;-89
2023/07/29 09:01:57;;;;;;;;;;;;;;;;;;5031993;28;19925;-89
2023/07/29 09:04:23;;;;;;;;;;;;;;;;;;5015271;28;19987;-89
2023/07/29 09:06:49;;;;;;;;;;;;;;;;;;5015253;28;19921;-89
2023/07/29 09:09:15;;;;;;;;;;;;;;;;;;5031792;28;19928;-87
2023/07/29 09:11:41;;;;;;;;;;;;;;;;;;5032180;28;20011;-88
2023/07/29 09:14:07;;;;;;;;;;;;;;;;;;5032052;28;19921;-89
2023/07/29 09:16:34;;;;;;;;;;;;;;;;;;5015515;28;19925;-88
2023/07/29 09:19:00;;;;;;;;;;;;;;;;;;5031695;28;19975;-87
2023/07/29 09:21:26;;;;;;;;;;;;;;;;;;5034740;28;19921;-89
2023/07/29 09:23:52;;;;;;;;;;;;;;;;;;5017356;28;19944;-89
2023/07/29 09:26:18;;;;;;;;;;;;;;;;;;5031308;28;19925;-88
2023/07/29 09:28:44;;;;;;;;;;;;;;;;;;5015103;28;20016;-89
2023/07/29 09:31:10;;;;;;;;;;;;;;;;;;5015140;28;20004;-90
2023/07/29 09:33:36;;;;;;;;;;;;;;;;;;5032744;28;20381;-90
2023/07/29 09:36:02;;;;;;;;;;;;;;;;;;5030972;28;19921;-88
2023/07/29 09:38:28;;;;;;;;;;;;;;;;;;5031336;28;20007;-88
2023/07/29 09:40:54;;;;;;;;;;;;;;;;;;5031599;28;19928;-88
2023/07/29 09:43:20;;;;;;;;;;;;;;;;;;5014812;28;19929;-89
2023/07/29 09:45:46;;;;;;;;;;;;;;;;;;5032836;28;19921;-88
2023/07/29 09:48:12;;;;;;;;;;;;;;;;;;5033005;28;19921;-89
2023/07/29 09:50:38;;;;;;;;;;;;;;;;;;5015167;28;19921;-89
2023/07/29 09:53:04;;;;;;;;;;;;;;;;;;5032563;28;19928;-89
2023/07/29 09:55:30;;;;;;;;;;;;;;;;;;5032672;28;20001;-89
2023/07/29 09:57:56;;;;;;;;;;;;;;;;;;5033748;28;19921;-89
2023/07/29 10:00:22;;;;;;;;;;;;;;;;;;5031957;28;19948;-89
2023/07/29 10:02:48;;;;;;;;;;;;;;;;;;5030891;28;20020;-91
2023/07/29 10:05:13;;;;;;;;;;;;;;;;;;5037015;28;20295;-91
2023/07/29 10:07:39;;;;;;;;;;;;;;;;;;5050829;28;19921;-89
2023/07/29 10:10:05;;;;;;;;;;;;;;;;;;5035022;28;19931;-91
2023/07/29 10:12:31;;;;;;;;;;;;;;;;;;5055556;28;20336;-90
2023/07/29 10:14:57;;;;;;;;;;;;;;;;;;5036470;28;20003;-90
2023/07/29 10:17:23;;;;;;;;;;;;;;;;;;5050853;28;19960;-91
2023/07/29 10:19:49;;;;;;;;;;;;;;;;;;5050944;28;19956;-91
2023/07/29 10:22:15;;;;;;;;;;;;;;;;;;5051915;28;19933;-92
2023/07/29 10:24:42;;;;;;;;;;;;;;;;;;5052409;28;20311;-91
2023/07/29 10:27:08;;;;;;;;;;;;;;;;;;5050605;28;19927;-91
2023/07/29 10:29:34;;;;;;;;;;;;;;;;;;5034288;28;19921;-91
2023/07/29 10:31:59;;;;;;;;;;;;;;;;;;5051001;28;19944;-92
2023/07/29 10:34:25;;;;;;;;;;;;;;;;;;5050678;28;19921;-91
2023/07/29 10:36:52;;;;;;;;;;;;;;;;;;5034499;28;19921;-91
2023/07/29 10:39:18;;;;;;;;;;;;;;;;;;5054879;28;20026;-91
2023/07/29 10:41:44;;;;;;;;;;;;;;;;;;5055969;28;19933;-89
2023/07/29 10:44:10;;;;;;;;;;;;;;;;;;5055849;28;19947;-90
2023/07/29 10:46:36;;;;;;;;;;;;;;;;;;5055817;28;19920;-89
2023/07/29 10:49:02;;;;;;;;;;;;;;;;;;5054179;28;20012;-90
2023/07/29 10:51:32;;;;;;;;;;;;;;;;;;5055728;28;20419;-89
2023/07/29 10:53:58;;;;;;;;;;;;;;;;;;5054552;28;19966;-89
2023/07/29 10:56:24;;;;;;;;;;;;;;;;;;5054295;28;20000;-89
2023/07/29 10:58:50;;;;;;;;;;;;;;;;;;5055630;28;20378;-89
2023/07/29 11:01:16;;;;;;;;;;;;;;;;;;5059148;28;20011;-89
2023/07/29 11:03:42;;;;;;;;;;;;;;;;;;5075392;28;19940;-89
2023/07/29 11:06:08;;;;;;;;;;;;;;;;;;5057155;28;19947;-89
2023/07/29 11:08:34;;;;;;;;;;;;;;;;;;5057333;28;19920;-88
2023/07/29 11:11:00;;;;;;;;;;;;;;;;;;5075097;28;19999;-89
2023/07/29 11:13:26;;;;;;;;;;;;;;;;;;5056839;28;20042;-88
2023/07/29 11:15:53;;;;;;;;;;;;;;;;;;5056823;28;20394;-88
2023/07/29 11:18:18;;;;;;;;;;;;;;;;;;5040078;28;19921;-88
2023/07/29 11:20:45;;;;;;;;;;;;;;;;;;5056768;28;20011;-88
2023/07/29 11:23:11;;;;;;;;;;;;;;;;;;5074941;28;20346;-89
2023/07/29 11:25:38;;;;;;;;;;;;;;;;;;5056835;28;19967;-90
2023/07/29 11:28:04;;;;;;;;;;;;;;;;;;5056224;28;20006;-89
2023/07/29 11:30:30;;;;;;;;;;;;;;;;;;5036805;28;20333;-89
2023/07/29 11:32:56;;;;;;;;;;;;;;;;;;5036710;28;20285;-89
2023/07/29 11:35:22;;;;;;;;;;;;;;;;;;5054514;28;19921;-88
2023/07/29 11:37:48;;;;;;;;;;;;;;;;;;5036687;28;19927;-89
2023/07/29 11:40:14;;;;;;;;;;;;;;;;;;5020890;28;19944;-89
2023/07/29 11:42:40;;;;;;;;;;;;;;;;;;5056861;28;19989;-90
2023/07/29 11:45:06;;;;;;;;;;;;;;;;;;5056363;28;19983;-91
2023/07/29 11:47:42;;;;;;;;;;;;;;;;;;5039114;28;20003;-91
2023/07/29 11:50:13;;;;;;;;;;;;;;;;;;5038530;28;20017;-91
2023/07/29 11:52:39;;;;;;;;;;;;;;;;;;5056751;28;19924;-91
2023/07/29 11:55:05;;;;;;;;;;;;;;;;;;5056270;28;19969;-88
2023/07/29 11:57:31;;;;;;;;;;;;;;;;;;5074220;28;20000;-88
2023/07/29 11:59:57;;;;;;;;;;;;;;;;;;5056016;28;20304;-88
2023/07/29 12:02:23;;;;;;;;;;;;;;;;;;5073874;28;19979;-88
2023/07/29 12:04:49;;;;;;;;;;;;;;;;;;5039491;28;19978;-89
2023/07/29 12:07:15;;;;;;;;;;;;;;;;;;5074231;28;19970;-88
2023/07/29 12:09:41;;;;;;;;;;;;;;;;;;5039495;28;19920;-86
2023/07/29 12:12:07;;;;;;;;;;;;;;;;;;5056292;28;19927;-86
2023/07/29 12:14:33;;;;;;;;;;;;;;;;;;5070948;28;20415;-87
2023/07/29 12:16:59;;;;;;;;;;;;;;;;;;5039338;28;19928;-87
2023/07/29 12:19:25;;;;;;;;;;;;;;;;;;5055709;28;19963;-87
2023/07/29 12:21:51;;;;;;;;;;;;;;;;;;5055849;28;20023;-87
2023/07/29 12:24:16;;;;;;;;;;;;;;;;;;5055678;28;20015;-87
2023/07/29 12:26:42;;;;;;;;;;;;;;;;;;5055658;28;20424;-88
2023/07/29 12:29:08;;;;;;;;;;;;;;;;;;5073940;28;19943;-87
2023/07/29 12:31:34;;;;;;;;;;;;;;;;;;5055940;28;19920;-88
2023/07/29 12:34:00;;;;;;;;;;;;;;;;;;5055583;28;19927;-87
2023/07/29 12:36:26;;;;;;;;;;;;;;;;;;5055717;28;19920;-88
2023/07/29 12:38:52;;;;;;;;;;;;;;;;;;5039230;28;19944;-86
2023/07/29 12:41:18;;;;;;;;;;;;;;;;;;5055279;28;19927;-86
2023/07/29 12:43:44;;;;;;;;;;;;;;;;;;5073385;28;19921;-86
2023/07/29 12:46:09;;;;;;;;;;;;;;;;;;5073534;28;19925;-86
2023/07/29 12:48:35;;;;;;;;;;;;;;;;;;5073572;28;19921;-87
2023/07/29 12:51:02;;;;;;;;;;;;;;;;;;5055225;28;19921;-86
2023/07/29 12:53:27;;;;;;;;;;;;;;;;;;5055204;28;19920;-87
2023/07/29 12:55:53;;;;;;;;;;;;;;;;;;5073385;28;19927;-87
2023/07/29 12:58:19;;;;;;;;;;;;;;;;;;5073081;28;20332;-87
2023/07/29 13:00:45;;;;;;;;;;;;;;;;;;5055143;28;19921;-87
2023/07/29 13:03:11;;;;;;;;;;;;;;;;;;5054674;28;19936;-88
2023/07/29 13:05:37;;;;;;;;;;;;;;;;;;5054974;28;19920;-86
2023/07/29 13:08:05;;;;;;;;;;;;;;;;;;5054660;28;20204;-87
2023/07/29 13:10:31;;;;;;;;;;;;;;;;;;5038326;28;20336;-87
2023/07/29 13:12:56;;;;;;;;;;;;;;;;;;5072753;28;20031;-86
2023/07/29 13:15:22;;;;;;;;;;;;;;;;;;5055359;28;20023;-88
2023/07/29 13:17:48;;;;;;;;;;;;;;;;;;5072761;28;20326;-87
2023/07/29 13:20:14;;;;;;;;;;;;;;;;;;5072902;28;19927;-87
2023/07/29 13:22:40;;;;;;;;;;;;;;;;;;5054724;28;19997;-87
2023/07/29 13:25:06;;;;;;;;;;;;;;;;;;5054622;28;19920;-88
2023/07/29 13:27:32;;;;;;;;;;;;;;;;;;5054672;28;19921;-87
2023/07/29 13:29:58;;;;;;;;;;;;;;;;;;5072516;28;19920;-87
2023/07/29 13:32:24;;;;;;;;;;;;;;;;;;5054840;28;19920;-88
2023/07/29 13:34:50;;;;;;;;;;;;;;;;;;5054734;28;19921;-87
2023/07/29 13:37:16;;;;;;;;;;;;;;;;;;5052348;28;20852;-88
2023/07/29 13:39:41;;;;;;;;;;;;;;;;;;5072455;28;19920;-88
2023/07/29 13:42:07;;;;;;;;;;;;;;;;;;5072533;28;19942;-86
2023/07/29 13:44:33;;;;;;;;;;;;;;;;;;5054425;28;20003;-87
2023/07/29 13:46:59;;;;;;;;;;;;;;;;;;5037629;28;19920;-88
2023/07/29 13:49:25;;;;;;;;;;;;;;;;;;5037672;28;19920;-88
2023/07/29 13:51:51;;;;;;;;;;;;;;;;;;5072247;28;20363;-87
2023/07/29 13:54:17;;;;;;;;;;;;;;;;;;5054026;28;19996;-87
2023/07/29 13:56:43;;;;;;;;;;;;;;;;;;5072393;28;19988;-88
2023/07/29 13:59:09;;;;;;;;;;;;;;;;;;5054148;28;20313;-88
2023/07/29 14:01:35;;;;;;;;;;;;;;;;;;5072011;28;19982;-87
2023/07/29 14:04:00;;;;;;;;;;;;;;;;;;5072119;28;19977;-87
2023/07/29 14:06:26;;;;;;;;;;;;;;;;;;5054032;28;19928;-88
2023/07/29 14:08:52;;;;;;;;;;;;;;;;;;5072147;28;19920;-87
2023/07/29 14:11:18;;;;;;;;;;;;;;;;;;5053955;28;20466;-87
2023/07/29 14:13:44;;;;;;;;;;;;;;;;;;5036751;28;19921;-89
2023/07/29 14:16:10;;;;;;;;;;;;;;;;;;5053991;28;19990;-88
2023/07/29 14:18:36;;;;;;;;;;;;;;;;;;5053839;28;19927;-91
2023/07/29 14:21:02;;;;;;;;;;;;;;;;;;5054125;28;19928;-89
2023/07/29 14:23:28;;;;;;;;;;;;;;;;;;5054136;28;19976;-91
2023/07/29 14:25:54;;;;;;;;;;;;;;;;;;5037409;28;19921;-92
2023/07/29 14:28:21;;;;;;;;;;;;;;;;;;5037589;28;19998;-91
2023/07/29 14:30:47;;;;;;;;;;;;;;;;;;5037715;28;19928;-91
2023/07/29 14:33:14;;;;;;;;;;;;;;;;;;5053960;28;19924;-91
2023/07/29 14:35:40;;;;;;;;;;;;;;;;;;5037118;28;20005;-89
2023/07/29 14:38:06;;;;;;;;;;;;;;;;;;5071282;28;20383;-89
2023/07/29 14:40:32;;;;;;;;;;;;;;;;;;5054002;28;20045;-89
2023/07/29 14:42:58;;;;;;;;;;;;;;;;;;5037084;28;19925;-88
2023/07/29 14:45:24;;;;;;;;;;;;;;;;;;5071801;28;20490;-88
2023/07/29 14:47:50;;;;;;;;;;;;;;;;;;5037044;28;19936;-86
2023/07/29 14:50:15;;;;;;;;;;;;;;;;;;5053243;28;20292;-89
2023/07/29 14:52:41;;;;;;;;;;;;;;;;;;5036620;28;19924;-89
2023/07/29 14:55:07;;;;;;;;;;;;;;;;;;5053671;28;20027;-89
2023/07/29 14:57:33;;;;;;;;;;;;;;;;;;5036849;28;19924;-90
2023/07/29 14:59:59;;;;;;;;;;;;;;;;;;5053961;28;20375;-90
2023/07/29 15:02:25;;;;;;;;;;;;;;;;;;5050156;28;20341;-91
2023/07/29 15:04:51;;;;;;;;;;;;;;;;;;5034151;28;19944;-90
2023/07/29 15:07:17;;;;;;;;;;;;;;;;;;5033809;28;20379;-89
2023/07/29 15:09:43;;;;;;;;;;;;;;;;;;5050156;28;19921;-88
2023/07/29 15:12:09;;;;;;;;;;;;;;;;;;5050515;28;19920;-93
2023/07/29 15:14:35;;;;;;;;;;;;;;;;;;5033592;28;20069;-90
2023/07/29 15:17:01;;;;;;;;;;;;;;;;;;5050341;28;20297;-88
2023/07/29 15:19:26;;;;;;;;;;;;;;;;;;5033851;28;19987;-89
2023/07/29 15:21:52;;;;;;;;;;;;;;;;;;5051534;28;20002;-90
2023/07/29 15:24:18;;;;;;;;;;;;;;;;;;5052433;28;20372;-88
2023/07/29 15:26:44;;;;;;;;;;;;;;;;;;5055062;28;20392;-88
2023/07/29 15:29:10;;;;;;;;;;;;;;;;;;5053877;28;20229;-89
2023/07/29 15:31:36;;;;;;;;;;;;;;;;;;5055093;28;19920;-89
2023/07/29 15:34:02;;;;;;;;;;;;;;;;;;5055042;28;19920;-89
2023/07/29 15:36:28;;;;;;;;;;;;;;;;;;5053830;28;19920;-90
2023/07/29 15:38:54;;;;;;;;;;;;;;;;;;5053696;28;19928;-89
2023/07/29 15:41:20;;;;;;;;;;;;;;;;;;5054819;28;19928;-89
2023/07/29 15:43:46;;;;;;;;;;;;;;;;;;5054601;28;19920;-89
2023/07/29 15:46:12;;;;;;;;;;;;;;;;;;5054849;28;20319;-91
2023/07/29 15:48:37;;;;;;;;;;;;;;;;;;5053417;28;19975;-88
2023/07/29 15:51:03;;;;;;;;;;;;;;;;;;5036694;28;19982;-88
2023/07/29 15:53:29;;;;;;;;;;;;;;;;;;5036528;28;19990;-87
2023/07/29 15:55:55;;;;;;;;;;;;;;;;;;5053197;28;19928;-86
2023/07/29 15:58:21;;;;;;;;;;;;;;;;;;5054177;28;20299;-88
2023/07/29 16:00:47;;;;;;;;;;;;;;;;;;5053012;28;19928;-89
2023/07/29 16:03:13;;;;;;;;;;;;;;;;;;5035992;28;20015;-88
2023/07/29 16:05:39;;;;;;;;;;;;;;;;;;5036160;28;19921;-88
2023/07/29 16:08:05;;;;;;;;;;;;;;;;;;5052917;28;19931;-89
2023/07/29 16:10:31;;;;;;;;;;;;;;;;;;5036300;28;19921;-89
2023/07/29 16:12:57;;;;;;;;;;;;;;;;;;5054110;28;20027;-89
2023/07/29 16:15:23;;;;;;;;;;;;;;;;;;5052676;28;20303;-89
2023/07/29 16:17:52;;;;;;;;;;;;;;;;;;5052678;28;19927;-89
2023/07/29 16:20:18;;;;;;;;;;;;;;;;;;5035638;28;19931;-88
2023/07/29 16:22:44;;;;;;;;;;;;;;;;;;5053935;28;19925;-87
2023/07/29 16:25:10;;;;;;;;;;;;;;;;;;5052300;28;20303;-89
2023/07/29 16:27:36;;;;;;;;;;;;;;;;;;5052384;28;19921;-88
2023/07/29 16:30:02;;;;;;;;;;;;;;;;;;5035787;28;20299;-88
2023/07/29 16:32:28;;;;;;;;;;;;;;;;;;5052266;28;19943;-88
2023/07/29 16:34:54;;;;;;;;;;;;;;;;;;5034854;28;19920;-88
2023/07/29 16:37:20;;;;;;;;;;;;;;;;;;5052367;28;19967;-87